createdAt,value
2023-01-08T00:01:06.056Z,16.17
2023-01-08T00:04:08.627Z,16.45
2023-01-08T00:07:11.041Z,16.00
2023-01-08T00:10:13.444Z,16.25
2023-01-08T00:13:15.801Z,16.35
2023-01-08T00:16:19.423Z,15.07
2023-01-08T00:19:21.799Z,17.55
2023-01-08T00:22:24.761Z,15.68
2023-01-08T00:25:27.163Z,16.20
2023-01-08T00:28:30.578Z,16.23
2023-01-08T00:31:32.975Z,14.77
2023-01-08T00:34:35.325Z,14.43
2023-01-08T00:37:37.684Z,14.17
2023-01-08T00:40:42.685Z,12.27
2023-01-08T00:43:45.141Z,11.60
2023-01-08T00:46:47.482Z,11.47
2023-01-08T00:49:49.906Z,11.40
2023-01-08T00:52:52.331Z,12.80
2023-01-08T00:56:06.876Z,10.77
2023-01-08T00:59:09.251Z,12.48
2023-01-08T01:02:11.857Z,12.80
2023-01-08T01:05:15.546Z,16.60
2023-01-08T01:08:18.053Z,13.93
2023-01-08T01:11:23.914Z,14.38
2023-01-08T01:14:26.324Z,13.00
2023-01-08T01:17:28.797Z,11.70
2023-01-08T01:20:31.147Z,10.65
2023-01-08T01:23:33.502Z,9.70
2023-01-08T01:26:35.925Z,9.60
2023-01-08T01:29:38.747Z,11.65
2023-01-08T01:32:41.081Z,9.68
2023-01-08T01:35:43.445Z,9.63
2023-01-08T01:38:47.984Z,9.27
2023-01-08T01:41:50.426Z,10.38
2023-01-08T01:44:52.932Z,11.10
2023-01-08T01:47:55.450Z,9.60
2023-01-08T01:50:58.001Z,8.85
2023-01-08T01:54:03.683Z,9.82
2023-01-08T01:57:07.830Z,11.75
2023-01-08T02:00:10.783Z,11.98
2023-01-08T02:03:16.876Z,9.30
2023-01-08T02:06:38.388Z,7.97
2023-01-08T02:09:43.443Z,8.70
2023-01-08T02:12:53.193Z,8.80
2023-01-08T02:16:04.827Z,8.52
2023-01-08T02:19:16.764Z,9.63
2023-01-08T02:22:31.098Z,7.93
2023-01-08T02:26:04.615Z,8.38
2023-01-08T02:29:09.731Z,8.82
2023-01-08T02:32:12.113Z,8.90
2023-01-08T02:35:14.733Z,8.23
2023-01-08T02:38:18.575Z,8.55
2023-01-08T02:41:27.936Z,8.13
2023-01-08T02:44:36.215Z,8.23
2023-01-08T02:47:44.939Z,7.38
2023-01-08T02:51:08.209Z,7.03
2023-01-08T02:54:16.355Z,7.65
2023-01-08T02:57:20.052Z,7.70
2023-01-08T03:00:23.061Z,8.25
2023-01-08T03:03:28.744Z,8.75
2023-01-08T03:06:31.994Z,8.93
2023-01-08T03:09:35.546Z,8.52
2023-01-08T03:12:53.845Z,8.70
2023-01-08T03:16:01.019Z,9.05
2023-01-08T03:19:13.363Z,8.13
2023-01-08T03:22:18.144Z,8.03
2023-01-08T03:25:24.148Z,8.45
2023-01-08T03:28:32.923Z,9.30
2023-01-08T03:31:36.021Z,8.77
2023-01-08T03:34:42.124Z,7.65
2023-01-08T03:37:52.825Z,9.73
2023-01-08T03:41:00.923Z,15.27
2023-01-08T03:44:04.446Z,10.97
2023-01-08T03:47:10.239Z,9.13
2023-01-08T03:50:20.309Z,12.02
2023-01-08T03:53:22.734Z,14.03
2023-01-08T03:56:25.981Z,10.07
2023-01-08T03:59:28.528Z,9.30
2023-01-08T04:02:31.211Z,9.05
2023-01-08T04:05:33.823Z,8.90
2023-01-08T04:08:36.249Z,8.88
2023-01-08T04:11:38.649Z,8.70
2023-01-08T04:17:43.604Z,8.30
2023-01-08T04:20:48.800Z,8.77
2023-01-08T04:23:51.228Z,9.23
2023-01-08T04:26:53.633Z,10.05
2023-01-08T04:29:56.296Z,9.98
2023-01-08T04:32:58.798Z,9.10
2023-01-08T04:36:01.888Z,9.73
2023-01-08T04:39:05.351Z,9.68
2023-01-08T04:42:07.755Z,8.90
2023-01-08T04:45:10.439Z,8.50
2023-01-08T04:48:12.788Z,9.75
2023-01-08T04:51:15.314Z,8.40
2023-01-08T04:54:17.762Z,8.23
2023-01-08T04:57:20.158Z,8.75
2023-01-08T05:00:22.597Z,8.07
2023-01-08T05:03:25.230Z,9.23
2023-01-08T05:06:29.579Z,9.02
2023-01-08T05:09:32.758Z,9.18
2023-01-08T05:12:35.209Z,8.57
2023-01-08T05:15:37.641Z,8.03
2023-01-08T05:18:40.166Z,8.60
2023-01-08T05:21:42.659Z,8.48
2023-01-08T05:24:45.210Z,9.70
2023-01-08T05:27:48.273Z,13.93
2023-01-08T05:30:50.818Z,11.10
2023-01-08T05:33:53.390Z,11.52
2023-01-08T05:36:55.776Z,10.30
2023-01-08T05:39:58.216Z,9.88
2023-01-08T05:43:01.264Z,9.45
2023-01-08T05:46:04.850Z,9.47
2023-01-08T05:49:07.324Z,9.32
2023-01-08T05:52:09.721Z,9.02
2023-01-08T05:55:12.153Z,9.67
2023-01-08T05:58:18.983Z,8.68
2023-01-08T06:01:22.766Z,9.00
2023-01-08T06:04:25.332Z,11.45
2023-01-08T06:07:30.660Z,13.43
2023-01-08T06:10:33.036Z,13.65
2023-01-08T06:13:37.937Z,12.65
2023-01-08T06:16:40.425Z,11.97
2023-01-08T06:19:43.298Z,10.65
2023-01-08T06:22:45.673Z,11.63
2023-01-08T06:25:55.306Z,10.40
2023-01-08T06:28:57.641Z,10.18
2023-01-08T06:31:59.985Z,9.50
2023-01-08T06:35:02.455Z,9.75
2023-01-08T06:38:04.855Z,9.30
2023-01-08T06:41:10.298Z,14.85
2023-01-08T06:44:13.239Z,16.67
2023-01-08T06:47:15.641Z,11.17
2023-01-08T06:50:18.098Z,13.10
2023-01-08T06:53:20.859Z,13.70
2023-01-08T06:56:23.402Z,13.13
2023-01-08T06:59:25.958Z,13.20
2023-01-08T07:02:28.387Z,21.25
2023-01-08T07:05:30.816Z,17.85
2023-01-08T07:08:33.378Z,15.15
2023-01-08T07:11:36.182Z,15.32
2023-01-08T07:14:38.527Z,15.90
2023-01-08T07:17:40.982Z,13.33
2023-01-08T07:20:43.369Z,12.85
2023-01-08T07:23:48.858Z,12.02
2023-01-08T07:26:51.194Z,11.50
2023-01-08T07:29:55.939Z,10.90
2023-01-08T07:33:00.263Z,11.60
2023-01-08T07:36:02.712Z,11.88
2023-01-08T07:39:05.339Z,13.40
2023-01-08T07:42:07.698Z,21.25
2023-01-08T07:45:10.440Z,15.95
2023-01-08T07:48:16.515Z,14.37
2023-01-08T07:51:19.066Z,15.10
2023-01-08T07:54:21.484Z,12.98
2023-01-08T07:57:23.872Z,18.77
2023-01-08T08:00:26.487Z,18.75
2023-01-08T08:03:28.960Z,15.80
2023-01-08T08:06:31.357Z,13.98
2023-01-08T08:09:33.811Z,14.73
2023-01-08T08:12:36.178Z,13.25
2023-01-08T08:15:40.119Z,13.77
2023-01-08T08:18:42.499Z,12.67
2023-01-08T08:21:44.894Z,10.88
2023-01-08T08:24:47.294Z,13.63
2023-01-08T08:27:49.672Z,13.50
2023-01-08T08:30:52.741Z,9.52
2023-01-08T08:34:03.757Z,13.05
2023-01-08T08:37:06.094Z,14.60
2023-01-08T08:40:09.268Z,14.57
2023-01-08T08:43:11.925Z,13.13
2023-01-08T08:46:14.404Z,17.45
2023-01-08T08:49:17.142Z,16.13
2023-01-08T08:52:19.545Z,19.80
2023-01-08T08:55:21.874Z,16.23
2023-01-08T08:58:24.393Z,15.63
2023-01-08T09:01:27.214Z,13.85
2023-01-08T09:04:31.126Z,14.48
2023-01-08T09:07:33.589Z,15.80
2023-01-08T09:10:41.525Z,17.25
2023-01-08T09:13:43.934Z,17.83
2023-01-08T09:16:46.725Z,16.20
2023-01-08T09:19:49.135Z,15.13
2023-01-08T09:22:51.563Z,17.60
2023-01-08T09:26:02.377Z,17.17
2023-01-08T09:29:05.162Z,17.73
2023-01-08T09:32:08.573Z,18.15
2023-01-08T09:35:10.998Z,16.88
2023-01-08T09:38:13.474Z,16.20
2023-01-08T09:41:21.582Z,18.50
2023-01-08T09:44:27.987Z,17.13
2023-01-08T09:47:39.237Z,22.98
2023-01-08T09:50:41.701Z,19.87
2023-01-08T09:53:44.786Z,20.17
2023-01-08T09:56:47.418Z,20.73
2023-01-08T09:59:50.069Z,21.40
2023-01-08T10:02:54.405Z,19.17
2023-01-08T10:05:56.838Z,23.15
2023-01-08T10:08:59.462Z,46.30
2023-01-08T10:12:04.359Z,39.80
2023-01-08T10:15:12.216Z,24.50
2023-01-08T10:18:17.052Z,33.92
2023-01-08T10:21:19.708Z,26.53
2023-01-08T10:24:39.724Z,23.17
2023-01-08T10:27:51.813Z,26.92
2023-01-08T10:30:59.767Z,30.37
2023-01-08T10:34:10.538Z,30.00
2023-01-08T10:37:28.157Z,21.83
2023-01-08T10:40:43.713Z,22.55
2023-01-08T10:43:56.388Z,21.88
2023-01-08T10:47:00.680Z,21.55
2023-01-08T10:50:05.877Z,19.55
2023-01-08T10:53:25.248Z,21.97
2023-01-08T10:56:30.172Z,22.45
2023-01-08T10:59:32.567Z,21.00
2023-01-08T11:02:38.911Z,20.30
2023-01-08T11:05:43.112Z,20.27
2023-01-08T11:08:51.858Z,21.63
2023-01-08T11:11:54.992Z,22.23
2023-01-08T11:14:57.577Z,21.10
2023-01-08T11:18:18.158Z,21.33
2023-01-08T11:21:24.269Z,24.10
2023-01-08T11:24:30.239Z,22.27
2023-01-08T11:27:36.909Z,22.10
2023-01-08T11:30:40.865Z,23.63
2023-01-08T11:33:47.388Z,24.83
2023-01-08T11:37:19.261Z,24.05
2023-01-08T11:40:42.430Z,22.38
2023-01-08T11:43:47.521Z,25.65
2023-01-08T11:47:21.516Z,23.58
2023-01-08T11:50:26.949Z,23.48
2023-01-08T11:53:36.934Z,26.80
2023-01-08T11:57:28.571Z,26.33
2023-01-08T12:00:56.830Z,27.52
2023-01-08T12:04:31.136Z,29.77
2023-01-08T12:07:58.456Z,26.60
2023-01-08T12:11:03.861Z,30.17
2023-01-08T12:14:15.129Z,33.28
2023-01-08T12:17:41.918Z,30.80
2023-01-08T12:20:51.133Z,28.70
2023-01-08T12:24:15.414Z,27.23
2023-01-08T12:27:56.232Z,32.53
2023-01-08T12:31:16.151Z,32.43
2023-01-08T12:34:49.376Z,33.50
2023-01-08T12:38:17.751Z,35.10
2023-01-08T12:41:20.203Z,36.83
2023-01-08T12:44:29.045Z,39.78
2023-01-08T12:47:35.455Z,35.30
2023-01-08T12:50:49.798Z,33.13
2023-01-08T12:54:08.817Z,25.35
2023-01-08T12:57:38.887Z,29.40
2023-01-08T13:00:56.544Z,38.42
2023-01-08T13:04:01.431Z,41.03
2023-01-08T13:07:05.238Z,31.05
2023-01-08T13:10:19.370Z,55.03
2023-01-08T13:13:37.022Z,59.77
2023-01-08T13:16:41.786Z,42.90
2023-01-08T13:19:51.205Z,38.25
2023-01-08T13:22:56.424Z,37.67
2023-01-08T13:26:00.716Z,34.05
2023-01-08T13:29:25.384Z,36.85
2023-01-08T13:32:47.167Z,32.83
2023-01-08T13:35:50.296Z,32.03
2023-01-08T13:39:03.069Z,36.58
2023-01-08T13:42:13.108Z,38.50
2023-01-08T13:45:15.466Z,32.43
2023-01-08T13:48:27.598Z,34.28
2023-01-08T13:51:42.412Z,33.70
2023-01-08T13:54:45.570Z,37.45
2023-01-08T13:57:58.342Z,36.38
2023-01-08T14:01:02.198Z,33.13
2023-01-08T14:04:04.974Z,32.88
2023-01-08T14:07:14.874Z,33.27
2023-01-08T14:10:18.336Z,31.70
2023-01-08T14:13:28.739Z,42.53
2023-01-08T14:16:33.395Z,42.27
2023-01-08T14:19:36.013Z,41.10
2023-01-08T14:22:41.983Z,33.20
2023-01-08T14:25:47.840Z,38.30
2023-01-08T14:28:53.858Z,33.95
2023-01-08T14:31:58.944Z,34.78
2023-01-08T14:35:03.920Z,33.00
2023-01-08T14:38:06.466Z,33.40
2023-01-08T14:41:14.740Z,32.38
2023-01-08T14:44:20.913Z,35.13
2023-01-08T14:47:32.549Z,33.30
2023-01-08T14:50:40.902Z,42.22
2023-01-08T14:53:46.287Z,44.95
2023-01-08T14:56:52.263Z,38.75
2023-01-08T14:59:58.542Z,45.67
2023-01-08T15:03:01.032Z,39.92
2023-01-08T15:06:04.910Z,41.90
2023-01-08T15:09:36.538Z,37.90
2023-01-08T15:12:39.157Z,40.05
2023-01-08T15:15:57.099Z,33.70
2023-01-08T15:19:02.269Z,32.80
2023-01-08T15:22:04.699Z,30.33
2023-01-08T15:25:08.653Z,28.10
2023-01-08T15:28:15.330Z,30.10
2023-01-08T15:31:29.221Z,29.25
2023-01-08T15:34:31.559Z,28.55
2023-01-08T15:37:33.984Z,33.20
2023-01-08T15:40:36.470Z,29.07
2023-01-08T15:43:39.506Z,28.92
2023-01-08T15:46:42.004Z,26.58
2023-01-08T15:49:44.728Z,25.43
2023-01-08T15:52:47.625Z,26.10
2023-01-08T15:55:51.255Z,26.10
2023-01-08T15:58:53.701Z,27.38
2023-01-08T16:01:56.333Z,29.13
2023-01-08T16:04:59.017Z,29.23
2023-01-08T16:08:01.515Z,33.28
2023-01-08T16:11:03.900Z,28.20
2023-01-08T16:14:06.258Z,28.65
2023-01-08T16:17:10.012Z,25.38
2023-01-08T16:20:14.370Z,28.50
2023-01-08T16:23:16.797Z,27.33
2023-01-08T16:26:19.381Z,28.63
2023-01-08T16:29:22.094Z,34.40
2023-01-08T16:32:24.670Z,34.50
2023-01-08T16:35:27.224Z,39.08
2023-01-08T16:38:31.667Z,32.08
2023-01-08T16:41:36.677Z,33.40
2023-01-08T16:44:39.312Z,32.42
2023-01-08T16:47:41.891Z,30.63
2023-01-08T16:50:44.900Z,31.47
2023-01-08T16:53:47.409Z,31.38
2023-01-08T16:56:49.739Z,29.10
2023-01-08T16:59:52.353Z,31.27
2023-01-08T17:02:54.754Z,29.52
2023-01-08T17:06:00.246Z,28.15
2023-01-08T17:09:03.645Z,30.35
2023-01-08T17:12:06.405Z,27.63
2023-01-08T17:15:09.290Z,30.20
2023-01-08T17:18:11.888Z,28.58
2023-01-08T17:21:14.873Z,31.17
2023-01-08T17:24:17.284Z,27.08
2023-01-08T17:27:19.672Z,25.55
2023-01-08T17:30:22.156Z,26.73
2023-01-08T17:33:24.939Z,26.58
2023-01-08T17:36:27.536Z,28.13
2023-01-08T17:39:29.965Z,30.02
2023-01-08T17:42:32.580Z,27.40
2023-01-08T17:45:38.745Z,24.88
2023-01-08T17:48:44.804Z,27.52
2023-01-08T17:51:47.304Z,23.53
2023-01-08T17:54:51.046Z,27.63
2023-01-08T17:57:53.370Z,26.05
2023-01-08T18:00:55.949Z,24.98
2023-01-08T18:03:58.573Z,27.40
2023-01-08T18:07:01.324Z,27.13
2023-01-08T18:10:04.989Z,27.42
2023-01-08T18:13:07.539Z,25.57
2023-01-08T18:16:13.609Z,26.38
2023-01-08T18:19:17.837Z,24.33
2023-01-08T18:22:20.201Z,25.67
2023-01-08T18:25:22.832Z,25.88
2023-01-08T18:28:25.237Z,25.42
2023-01-08T18:31:28.035Z,25.90
2023-01-08T18:34:30.424Z,25.17
2023-01-08T18:37:33.115Z,25.33
2023-01-08T18:40:36.455Z,23.58
2023-01-08T18:43:38.868Z,23.67
2023-01-08T18:46:41.285Z,27.85
2023-01-08T18:49:43.842Z,23.90
2023-01-08T18:52:46.973Z,22.00
2023-01-08T18:55:50.481Z,23.15
2023-01-08T18:58:53.025Z,23.65
2023-01-08T19:01:55.493Z,20.15
2023-01-08T19:04:57.913Z,19.27
2023-01-08T19:08:00.631Z,21.63
2023-01-08T19:11:04.492Z,21.67
2023-01-08T19:14:06.929Z,21.47
2023-01-08T19:17:09.524Z,22.10
2023-01-08T19:20:12.351Z,21.48
2023-01-08T19:23:15.054Z,22.70
2023-01-08T19:26:18.032Z,24.55
2023-01-08T19:29:20.712Z,23.05
2023-01-08T19:32:23.453Z,25.73
2023-01-08T19:35:25.916Z,27.35
2023-01-08T19:38:28.891Z,22.60
2023-01-08T19:41:49.738Z,24.50
2023-01-08T19:44:52.865Z,23.27
2023-01-08T19:47:56.246Z,24.48
2023-01-08T19:50:58.841Z,24.60
2023-01-08T19:54:01.358Z,27.03
2023-01-08T19:57:03.971Z,26.23
2023-01-08T20:00:07.287Z,25.08
2023-01-08T20:03:17.468Z,26.13
2023-01-08T20:06:22.852Z,21.05
2023-01-08T20:09:25.584Z,20.25
2023-01-08T20:12:28.333Z,19.50
2023-01-08T20:15:32.423Z,18.57
2023-01-08T20:18:35.662Z,16.88
2023-01-08T20:21:38.368Z,16.65
2023-01-08T20:24:41.862Z,16.73
2023-01-08T20:27:44.312Z,16.52
2023-01-08T20:30:46.735Z,17.83
2023-01-08T20:33:49.449Z,16.33
2023-01-08T20:36:52.338Z,15.50
2023-01-08T20:39:55.558Z,14.82
2023-01-08T20:42:57.882Z,14.88
2023-01-08T20:46:01.098Z,14.63
2023-01-08T20:49:06.451Z,15.90
2023-01-08T20:52:09.113Z,14.82
2023-01-08T20:55:11.861Z,16.00
2023-01-08T20:58:14.240Z,16.67
2023-01-08T21:01:19.360Z,16.83
2023-01-08T21:04:22.006Z,19.30
2023-01-08T21:07:24.637Z,21.95
2023-01-08T21:10:27.117Z,22.38
2023-01-08T21:13:30.087Z,28.75
2023-01-08T21:16:34.742Z,19.63
2023-01-08T21:19:37.238Z,17.95
2023-01-08T21:22:39.663Z,17.30
2023-01-08T21:25:42.568Z,19.73
2023-01-08T21:28:45.569Z,20.90
2023-01-08T21:31:48.186Z,19.52
2023-01-08T21:34:50.742Z,18.15
2023-01-08T21:37:53.093Z,16.10
2023-01-08T21:41:02.403Z,15.10
2023-01-08T21:44:29.413Z,14.63
2023-01-08T21:47:31.851Z,14.40
2023-01-08T21:50:34.367Z,14.15
2023-01-08T21:53:36.743Z,15.15
2023-01-08T21:56:40.136Z,16.30
2023-01-08T21:59:42.953Z,16.40
2023-01-08T22:02:45.463Z,16.77
2023-01-08T22:06:04.870Z,16.45
2023-01-08T22:09:08.050Z,15.85
2023-01-08T22:12:10.599Z,15.68
2023-01-08T22:15:13.301Z,14.20
2023-01-08T22:18:15.932Z,13.87
2023-01-08T22:21:18.879Z,15.25
2023-01-08T22:24:21.237Z,13.77
2023-01-08T22:27:23.612Z,14.57
2023-01-08T22:30:26.050Z,13.25
2023-01-08T22:33:34.412Z,13.20
2023-01-08T22:36:36.865Z,12.05
2023-01-08T22:39:40.233Z,13.00
2023-01-08T22:42:42.622Z,12.73
2023-01-08T22:45:53.181Z,13.30
2023-01-08T22:48:55.692Z,12.90
2023-01-08T22:51:58.885Z,13.02
2023-01-08T22:55:02.641Z,11.43
2023-01-08T22:58:05.050Z,11.93
2023-01-08T23:01:14.953Z,12.40
2023-01-08T23:04:17.569Z,12.20
2023-01-08T23:07:21.224Z,11.45
2023-01-08T23:10:24.021Z,11.32
2023-01-08T23:13:26.425Z,10.23
2023-01-08T23:16:29.062Z,11.93
2023-01-08T23:19:31.486Z,11.13
2023-01-08T23:22:34.065Z,10.85
2023-01-08T23:25:36.424Z,12.10
2023-01-08T23:28:39.570Z,11.57
2023-01-08T23:31:44.037Z,11.30
2023-01-08T23:34:46.600Z,11.27
2023-01-08T23:37:49.039Z,11.73
2023-01-08T23:40:51.445Z,11.27
2023-01-08T23:43:54.797Z,12.93
2023-01-08T23:46:57.161Z,12.00
2023-01-08T23:49:59.641Z,11.40
2023-01-08T23:53:02.150Z,12.68
2023-01-08T23:56:04.867Z,12.15
2023-01-08T23:59:08.224Z,11.60
